Altamonte Springs, Florida
Current Conditions -  °F | °C
As of 6:53 AM on Monday 26 Jan 2015 (Local Time) from KORL Reporting Station
Light Rain Light Rain  
Wind Chill: 57°   Ceiling: 5500
Heat Index: 57°   Visibility: 10mi
Dew Point: 56°   Wind: 6mph
Humidity: 96%   Direction: 250°WSW
Pressure: 29.85"   Gusts: NA
Location:  28.67°N, 81.36°W
Report Text: KORL 261153Z AUTO 25005KT 10SM -RA BKN055 BKN085 14/13 A2985 RMK AO2 WSHFT 1047 RAE23B50 SLP112 P0009 60019 70019 T01390133 10144 20128 55002
Loading
Personal Weather Stations






























Interactive Weather Map New forecast layout! Learn more

10-Day Weather Forecast

Advertisements
Track Severe Weather on mobile